createdAt,value
2023-07-04T00:00:29.666Z,6.20
2023-07-04T00:02:35.072Z,5.78
2023-07-04T00:04:47.216Z,6.30
2023-07-04T00:06:58.284Z,4.88
2023-07-04T00:09:05.978Z,4.43
2023-07-04T00:11:16.242Z,4.35
2023-07-04T00:13:31.691Z,5.85
2023-07-04T00:15:37.642Z,3.88
2023-07-04T00:17:46.344Z,5.55
2023-07-04T00:19:53.071Z,6.93
2023-07-04T00:21:58.417Z,4.03
2023-07-04T00:24:08.173Z,6.25
2023-07-04T00:26:19.662Z,6.43
2023-07-04T00:28:28.360Z,5.28
2023-07-04T00:30:33.958Z,5.03
2023-07-04T00:32:41.093Z,6.88
2023-07-04T00:34:48.812Z,6.32
2023-07-04T00:39:00.489Z,4.28
2023-07-04T00:41:09.408Z,7.75
2023-07-04T00:50:22.606Z,3.70
2023-07-04T00:52:32.897Z,7.57
2023-07-04T00:54:42.441Z,4.20
2023-07-04T00:56:49.526Z,5.15
2023-07-04T00:59:01.854Z,4.22
2023-07-04T01:01:08.011Z,4.82
2023-07-04T01:03:24.919Z,4.07
2023-07-04T01:05:37.855Z,6.97
2023-07-04T01:07:51.133Z,6.88
2023-07-04T01:10:03.087Z,6.45
2023-07-04T01:12:13.456Z,5.28
2023-07-04T01:14:30.491Z,4.53
2023-07-04T01:16:37.419Z,8.10
2023-07-04T01:18:47.579Z,4.93
2023-07-04T01:20:56.825Z,6.38
2023-07-04T01:23:12.656Z,7.00
2023-07-04T01:25:25.130Z,5.88
2023-07-04T01:27:37.209Z,5.88
2023-07-04T01:29:42.613Z,7.55
2023-07-04T01:31:51.198Z,6.80
2023-07-04T01:34:04.067Z,6.70
2023-07-04T01:36:13.349Z,8.85
2023-07-04T01:38:21.875Z,7.88
2023-07-04T01:40:35.765Z,8.88
2023-07-04T01:42:45.596Z,7.68
2023-07-04T01:44:58.336Z,7.88
2023-07-04T01:47:05.968Z,9.00
2023-07-04T01:51:17.917Z,12.03
2023-07-04T01:53:31.120Z,7.32
2023-07-04T01:55:38.741Z,9.35
2023-07-04T01:57:49.135Z,8.25
2023-07-04T02:00:00.544Z,10.38
2023-07-04T02:02:08.749Z,8.75
2023-07-04T02:04:14.587Z,10.65
2023-07-04T02:06:20.019Z,7.32
2023-07-04T02:08:26.181Z,7.80
2023-07-04T02:10:34.647Z,8.02
2023-07-04T02:12:41.333Z,9.00
2023-07-04T02:14:56.795Z,8.20
2023-07-04T02:17:02.517Z,7.78
2023-07-04T02:19:08.659Z,6.78
2023-07-04T02:21:14.064Z,10.90
2023-07-04T02:23:23.033Z,10.75
2023-07-04T02:25:28.938Z,10.13
2023-07-04T02:27:42.086Z,6.53
2023-07-04T02:29:52.384Z,9.27
2023-07-04T02:31:59.812Z,9.65
2023-07-04T02:34:09.612Z,8.85
2023-07-04T02:36:16.076Z,8.98
2023-07-04T02:38:22.308Z,7.85
2023-07-04T02:40:31.093Z,7.07
2023-07-04T02:42:36.495Z,7.38
2023-07-04T02:44:42.930Z,9.55
2023-07-04T02:46:51.152Z,8.68
2023-07-04T02:48:57.070Z,7.38
2023-07-04T02:51:04.127Z,9.75
2023-07-04T02:53:10.903Z,7.93
2023-07-04T02:55:19.531Z,9.05
2023-07-04T02:57:26.832Z,11.77
2023-07-04T02:59:43.695Z,7.47
2023-07-04T03:01:58.410Z,9.60
2023-07-04T03:04:05.653Z,11.27
2023-07-04T03:06:15.078Z,8.35
2023-07-04T03:08:20.530Z,12.77
2023-07-04T03:10:26.940Z,11.77
2023-07-04T03:12:35.075Z,10.98
2023-07-04T03:14:47.044Z,11.48
2023-07-04T03:16:55.121Z,10.35
2023-07-04T03:19:03.025Z,8.43
2023-07-04T03:21:08.906Z,6.50
2023-07-04T03:23:22.935Z,8.10
2023-07-04T03:25:29.223Z,8.52
2023-07-04T03:27:41.796Z,12.25
2023-07-04T03:29:49.001Z,9.65
2023-07-04T03:31:57.300Z,14.80
2023-07-04T03:34:04.943Z,12.05
2023-07-04T03:36:10.676Z,13.55
2023-07-04T03:38:16.144Z,9.80
2023-07-04T03:40:24.925Z,10.02
2023-07-04T03:42:31.943Z,9.65
2023-07-04T03:44:43.896Z,9.98
2023-07-04T03:46:51.774Z,14.18
2023-07-04T03:48:59.993Z,9.80
2023-07-04T03:51:05.799Z,13.93
2023-07-04T03:53:11.374Z,8.32
2023-07-04T03:55:18.016Z,10.05
2023-07-04T03:57:23.777Z,10.88
2023-07-04T03:59:35.885Z,11.52
2023-07-04T04:01:41.501Z,14.10
2023-07-04T04:03:57.119Z,9.65
2023-07-04T04:06:05.464Z,13.60
2023-07-04T04:08:13.547Z,11.50
2023-07-04T04:10:22.206Z,11.50
2023-07-04T04:12:27.555Z,11.00
2023-07-04T04:14:33.822Z,13.55
2023-07-04T04:16:39.708Z,13.68
2023-07-04T04:18:47.744Z,13.68
2023-07-04T04:23:01.904Z,11.88
2023-07-04T04:25:10.584Z,13.93
2023-07-04T04:27:17.191Z,10.07
2023-07-04T04:29:23.537Z,10.73
2023-07-04T04:31:29.434Z,12.50
2023-07-04T04:33:40.001Z,11.63
2023-07-04T04:35:45.420Z,9.98
2023-07-04T04:37:50.746Z,14.32
2023-07-04T04:39:58.791Z,8.43
2023-07-04T04:42:04.181Z,9.57
2023-07-04T04:44:10.384Z,10.23
2023-07-04T04:46:16.002Z,15.55
2023-07-04T04:48:30.477Z,8.60
2023-07-04T04:50:36.823Z,11.95
2023-07-04T04:52:44.510Z,16.23
2023-07-04T04:57:02.004Z,15.73
2023-07-04T04:59:07.333Z,12.75
2023-07-04T05:01:18.132Z,13.00
2023-07-04T05:03:26.627Z,12.63
2023-07-04T05:05:34.356Z,11.23
2023-07-04T05:07:40.003Z,14.03
2023-07-04T05:09:47.215Z,12.27
2023-07-04T05:11:53.127Z,10.13
2023-07-04T05:14:01.653Z,11.77
2023-07-04T05:16:09.263Z,9.98
2023-07-04T05:18:16.935Z,13.95
2023-07-04T05:20:24.974Z,11.23
2023-07-04T05:22:30.348Z,12.60
2023-07-04T05:24:35.786Z,7.93
2023-07-04T05:26:46.937Z,11.07
2023-07-04T05:28:56.945Z,11.15
2023-07-04T05:31:10.011Z,9.10
2023-07-04T05:33:16.010Z,11.48
2023-07-04T05:35:22.142Z,14.25
2023-07-04T05:37:28.048Z,11.85
2023-07-04T05:39:33.600Z,11.70
2023-07-04T05:41:40.879Z,12.95
2023-07-04T05:43:56.150Z,12.82
2023-07-04T05:46:04.205Z,10.75
2023-07-04T05:48:09.747Z,14.15
2023-07-04T05:50:15.116Z,10.88
2023-07-04T05:52:20.548Z,15.65
2023-07-04T05:54:31.995Z,13.48
2023-07-04T05:56:37.598Z,10.43
2023-07-04T05:58:45.685Z,8.50
2023-07-04T06:00:53.176Z,19.83
2023-07-04T06:05:07.220Z,10.38
2023-07-04T06:07:12.823Z,13.43
2023-07-04T06:09:24.148Z,15.73
2023-07-04T06:11:34.750Z,9.48
2023-07-04T06:13:46.782Z,14.75
2023-07-04T06:15:52.234Z,13.95
2023-07-04T06:18:01.259Z,14.27
2023-07-04T06:20:07.005Z,11.73
2023-07-04T06:22:12.998Z,9.13
2023-07-04T06:24:22.458Z,10.38
2023-07-04T06:26:33.224Z,13.15
2023-07-04T06:28:41.003Z,11.27
2023-07-04T06:30:46.366Z,9.02
2023-07-04T06:32:52.131Z,11.27
2023-07-04T06:35:00.225Z,8.05
2023-07-04T06:37:06.604Z,6.95
2023-07-04T06:39:18.525Z,11.85
2023-07-04T06:41:24.280Z,11.70
2023-07-04T06:43:35.761Z,13.60
2023-07-04T06:45:41.189Z,11.90
2023-07-04T06:47:46.536Z,13.18
2023-07-04T06:49:54.797Z,9.95
2023-07-04T06:52:04.085Z,8.82
2023-07-04T06:54:10.545Z,12.02
2023-07-04T06:56:18.523Z,13.57
2023-07-04T06:58:26.780Z,10.15
2023-07-04T07:00:32.661Z,8.63
2023-07-04T07:02:38.112Z,11.60
2023-07-04T07:04:46.866Z,9.38
2023-07-04T07:06:53.390Z,10.20
2023-07-04T07:09:05.281Z,9.70
2023-07-04T07:11:12.408Z,15.30
2023-07-04T07:13:17.918Z,8.93
2023-07-04T07:15:24.285Z,8.48
2023-07-04T07:17:29.691Z,10.43
2023-07-04T07:19:43.267Z,7.63
2023-07-04T07:21:48.995Z,9.32
2023-07-04T07:23:57.352Z,10.60
2023-07-04T07:26:11.584Z,7.25
2023-07-04T07:28:17.175Z,7.72
2023-07-04T07:30:23.011Z,7.68
2023-07-04T07:32:30.574Z,9.95
2023-07-04T07:34:50.872Z,11.68
2023-07-04T07:36:56.246Z,10.02
2023-07-04T07:39:04.020Z,14.77
2023-07-04T07:41:12.757Z,7.97
2023-07-04T07:43:24.730Z,8.23
2023-07-04T07:45:30.068Z,8.82
2023-07-04T07:47:35.806Z,10.23
2023-07-04T07:49:42.444Z,5.83
2023-07-04T07:51:48.046Z,8.38
2023-07-04T07:53:55.044Z,8.77
2023-07-04T07:56:01.394Z,7.75
2023-07-04T07:58:09.604Z,6.70
2023-07-04T08:00:16.586Z,7.05
2023-07-04T08:02:22.286Z,6.22
2023-07-04T08:04:30.867Z,9.68
2023-07-04T08:06:41.083Z,6.95
2023-07-04T08:08:46.420Z,8.60
2023-07-04T08:10:53.294Z,2.42
2023-07-04T08:13:00.629Z,8.57
2023-07-04T08:15:11.507Z,5.95
2023-07-04T08:17:17.213Z,7.38
2023-07-04T08:19:25.645Z,7.75
2023-07-04T08:21:37.071Z,10.40
2023-07-04T08:23:45.683Z,9.55
2023-07-04T08:25:51.211Z,8.30
2023-07-04T08:27:58.018Z,9.27
2023-07-04T08:30:03.767Z,9.65
2023-07-04T08:32:14.343Z,8.13
2023-07-04T08:34:19.884Z,8.68
2023-07-04T08:36:26.319Z,6.05
2023-07-04T08:38:32.284Z,8.50
2023-07-04T08:40:37.951Z,13.18
2023-07-04T08:42:44.001Z,9.70
2023-07-04T08:44:57.448Z,8.50
2023-07-04T08:47:03.776Z,11.60
2023-07-04T08:49:25.312Z,8.88
2023-07-04T08:51:42.981Z,8.00
2023-07-04T08:53:56.000Z,9.77
2023-07-04T08:56:06.489Z,8.75
2023-07-04T08:58:20.916Z,8.68
2023-07-04T09:00:32.814Z,7.35
2023-07-04T09:03:00.361Z,9.82
2023-07-04T09:05:21.498Z,6.18
2023-07-04T09:07:33.519Z,6.75
2023-07-04T09:09:54.859Z,8.30
2023-07-04T09:12:00.537Z,6.22
2023-07-04T09:14:11.510Z,7.95
2023-07-04T09:16:24.469Z,4.80
2023-07-04T09:18:39.285Z,8.55
2023-07-04T09:20:57.498Z,10.57
2023-07-04T09:23:09.858Z,10.25
2023-07-04T09:25:15.649Z,6.97
2023-07-04T09:27:21.912Z,5.55
2023-07-04T09:29:28.672Z,6.90
2023-07-04T09:31:37.773Z,7.50
2023-07-04T09:33:45.118Z,8.52
2023-07-04T09:36:09.429Z,8.07
2023-07-04T09:38:17.381Z,7.80
2023-07-04T09:40:47.332Z,6.80
2023-07-04T09:42:56.129Z,10.20
2023-07-04T09:45:10.550Z,8.93
2023-07-04T09:47:24.735Z,8.25
2023-07-04T09:49:32.299Z,8.02
2023-07-04T09:53:58.068Z,7.32
2023-07-04T09:56:04.492Z,7.10
2023-07-04T09:58:24.829Z,9.82
2023-07-04T10:00:31.187Z,9.65
2023-07-04T10:02:38.773Z,8.70
2023-07-04T10:07:13.508Z,4.57
2023-07-04T10:09:22.628Z,8.57
2023-07-04T10:11:29.549Z,8.55
2023-07-04T10:13:42.254Z,7.93
2023-07-04T10:15:52.037Z,8.13
2023-07-04T10:17:57.436Z,9.48
2023-07-04T10:20:14.308Z,7.22
2023-07-04T10:22:42.210Z,8.13
2023-07-04T10:24:53.534Z,10.25
2023-07-04T10:27:03.582Z,7.80
2023-07-04T10:29:11.706Z,8.20
2023-07-04T10:31:25.009Z,7.10
2023-07-04T10:33:42.469Z,7.75
2023-07-04T10:35:52.874Z,9.63
2023-07-04T10:38:11.511Z,13.13
2023-07-04T10:40:20.741Z,13.35
2023-07-04T10:42:33.108Z,10.52
2023-07-04T10:44:46.218Z,8.88
2023-07-04T10:47:04.264Z,7.75
2023-07-04T10:49:14.839Z,9.38
2023-07-04T10:51:39.943Z,9.68
2023-07-04T10:53:48.473Z,8.25
2023-07-04T10:55:59.706Z,10.02
2023-07-04T10:58:08.718Z,8.85
2023-07-04T11:00:41.962Z,8.45
2023-07-04T11:02:55.710Z,11.63
2023-07-04T11:05:23.971Z,8.70
2023-07-04T11:07:31.188Z,14.23
2023-07-04T11:09:43.729Z,10.10
2023-07-04T11:11:52.078Z,10.80
2023-07-04T11:14:00.926Z,11.30
2023-07-04T11:16:13.344Z,9.30
2023-07-04T11:18:25.457Z,8.20
2023-07-04T11:20:56.362Z,9.38
2023-07-04T11:23:20.240Z,12.07
2023-07-04T11:25:46.247Z,9.93
2023-07-04T11:28:20.870Z,9.18
2023-07-04T11:30:46.418Z,8.70
2023-07-04T11:33:02.183Z,10.20
2023-07-04T11:35:21.256Z,8.95
2023-07-04T11:37:36.189Z,13.35
2023-07-04T11:39:44.646Z,11.02
2023-07-04T11:41:51.157Z,14.68
2023-07-04T11:43:58.277Z,11.88
2023-07-04T11:46:04.558Z,9.13
2023-07-04T11:48:17.351Z,10.35
2023-07-04T11:50:31.018Z,9.23
2023-07-04T11:52:39.914Z,9.43
2023-07-04T11:55:05.133Z,10.07
2023-07-04T11:57:16.236Z,15.07
2023-07-04T11:59:43.393Z,8.88
2023-07-04T12:02:11.017Z,9.85
2023-07-04T12:04:17.692Z,9.35
2023-07-04T12:06:54.242Z,9.73
2023-07-04T12:09:01.327Z,11.63
2023-07-04T12:11:12.100Z,12.98
2023-07-04T12:13:24.514Z,12.60
2023-07-04T12:15:33.269Z,10.65
2023-07-04T12:17:43.990Z,11.32
2023-07-04T12:19:49.994Z,10.60
2023-07-04T12:21:59.544Z,9.85
2023-07-04T12:24:07.340Z,12.70
2023-07-04T12:28:30.949Z,14.80
2023-07-04T12:30:39.038Z,14.23
2023-07-04T12:32:45.258Z,10.02
2023-07-04T12:37:15.589Z,12.00
2023-07-04T12:39:25.332Z,10.38
2023-07-04T12:41:35.366Z,13.38
2023-07-04T12:50:27.029Z,10.55
2023-07-04T12:52:34.954Z,10.75
2023-07-04T12:54:46.319Z,12.70
2023-07-04T12:56:57.384Z,9.38
2023-07-04T12:59:04.038Z,11.10
2023-07-04T13:01:13.545Z,8.88
2023-07-04T13:03:26.487Z,10.38
2023-07-04T13:05:45.112Z,11.23
2023-07-04T13:07:54.611Z,10.48
2023-07-04T13:10:02.044Z,11.93
2023-07-04T13:12:12.413Z,13.52
2023-07-04T13:14:27.689Z,10.45
2023-07-04T13:16:35.667Z,10.48
2023-07-04T13:18:42.861Z,11.07
2023-07-04T13:20:59.814Z,11.45
2023-07-04T13:25:47.686Z,12.82
2023-07-04T13:30:35.255Z,11.13
2023-07-04T13:35:30.845Z,10.73
2023-07-04T13:39:50.634Z,12.77
2023-07-04T13:40:07.088Z,9.95
2023-07-04T13:42:15.328Z,12.50
2023-07-04T13:46:32.478Z,12.85
2023-07-04T13:48:38.712Z,10.18
2023-07-04T13:50:44.532Z,12.15
2023-07-04T13:53:12.299Z,9.27
2023-07-04T13:55:19.783Z,11.60
2023-07-04T13:57:25.641Z,10.73
2023-07-04T13:59:33.593Z,11.32
2023-07-04T14:05:59.275Z,12.48
2023-07-04T14:08:06.960Z,13.30
2023-07-04T14:10:33.026Z,12.05
2023-07-04T14:12:40.099Z,11.57
2023-07-04T14:21:21.918Z,10.63
2023-07-04T14:23:47.852Z,12.73
2023-07-04T14:25:56.929Z,9.23
2023-07-04T14:28:02.525Z,12.68
2023-07-04T14:30:12.004Z,11.77
2023-07-04T14:32:17.956Z,10.88
2023-07-04T14:34:36.471Z,11.93
2023-07-04T14:36:42.209Z,11.80
2023-07-04T14:38:49.980Z,11.65
2023-07-04T14:43:05.067Z,11.98
2023-07-04T14:45:15.256Z,11.73
2023-07-04T14:47:22.093Z,13.93
2023-07-04T14:49:31.530Z,12.02
2023-07-04T14:51:41.670Z,10.85
2023-07-04T14:53:50.969Z,10.65
2023-07-04T14:56:09.244Z,10.68
2023-07-04T14:58:16.008Z,11.43
2023-07-04T15:00:26.105Z,11.80
2023-07-04T15:02:34.525Z,14.07
2023-07-04T15:04:42.721Z,11.45
2023-07-04T15:06:50.315Z,10.65
2023-07-04T15:08:56.671Z,11.35
2023-07-04T15:11:02.158Z,11.40
2023-07-04T15:13:08.936Z,11.38
2023-07-04T15:15:15.293Z,12.90
2023-07-04T15:17:38.333Z,11.77
2023-07-04T15:19:45.323Z,10.93
2023-07-04T15:21:53.796Z,13.75
2023-07-04T15:24:02.308Z,13.30
2023-07-04T15:28:17.840Z,10.88
2023-07-04T15:30:26.791Z,11.93
2023-07-04T15:32:35.933Z,11.18
2023-07-04T15:34:46.136Z,13.98
2023-07-04T15:37:10.457Z,10.65
2023-07-04T15:39:18.398Z,10.60
2023-07-04T15:41:23.868Z,11.63
2023-07-04T15:43:41.720Z,10.75
2023-07-04T15:45:48.490Z,12.23
2023-07-04T15:47:56.492Z,11.38
2023-07-04T15:50:04.503Z,13.80
2023-07-04T15:52:15.736Z,10.32
2023-07-04T15:54:25.914Z,13.40
2023-07-04T15:56:31.404Z,11.32
2023-07-04T15:58:38.650Z,11.82
2023-07-04T16:02:50.039Z,13.55
2023-07-04T16:07:09.204Z,10.98
2023-07-04T16:09:17.607Z,12.02
2023-07-04T16:11:24.979Z,12.40
2023-07-04T16:15:44.214Z,10.88
2023-07-04T16:17:49.850Z,13.63
2023-07-04T16:19:57.743Z,10.88
2023-07-04T16:22:05.791Z,10.55
2023-07-04T16:24:11.671Z,14.73
2023-07-04T16:26:26.022Z,14.93
2023-07-04T16:28:32.417Z,12.52
2023-07-04T16:30:38.348Z,14.25
2023-07-04T16:32:44.971Z,14.48
2023-07-04T16:34:50.666Z,11.93
2023-07-04T16:36:56.611Z,10.57
2023-07-04T16:39:11.312Z,12.25
2023-07-04T16:41:17.500Z,11.15
2023-07-04T16:43:27.767Z,12.40
2023-07-04T16:45:33.661Z,12.38
2023-07-04T16:47:50.821Z,9.65
2023-07-04T16:49:59.632Z,11.23
2023-07-04T16:52:09.816Z,12.30
2023-07-04T16:54:25.242Z,10.75
2023-07-04T16:56:30.871Z,12.77
2023-07-04T16:58:50.175Z,12.68
2023-07-04T17:01:00.042Z,11.75
2023-07-04T17:03:05.610Z,11.65
2023-07-04T17:05:12.388Z,12.00
2023-07-04T17:07:18.329Z,12.93
2023-07-04T17:09:26.716Z,13.68
2023-07-04T17:11:32.465Z,11.70
2023-07-04T17:13:45.424Z,9.38
2023-07-04T17:15:54.987Z,10.82
2023-07-04T17:18:00.747Z,12.50
2023-07-04T17:20:07.035Z,12.43
2023-07-04T17:22:13.068Z,12.10
2023-07-04T17:24:26.506Z,13.40
2023-07-04T17:26:32.357Z,10.80
2023-07-04T17:28:38.174Z,13.27
2023-07-04T17:30:44.432Z,11.90
2023-07-04T17:32:50.292Z,11.98
2023-07-04T17:35:02.966Z,12.90
2023-07-04T17:37:09.788Z,11.88
2023-07-04T17:39:21.877Z,10.57
2023-07-04T17:41:33.462Z,12.35
2023-07-04T17:43:40.013Z,11.85
2023-07-04T17:45:51.287Z,12.27
2023-07-04T17:48:19.293Z,12.07
2023-07-04T17:50:30.439Z,13.90
2023-07-04T17:52:39.297Z,12.07
2023-07-04T17:54:48.948Z,12.38
2023-07-04T17:56:58.223Z,11.68
2023-07-04T17:59:07.388Z,12.82
2023-07-04T18:01:18.023Z,14.98
2023-07-04T18:03:26.948Z,10.68
2023-07-04T18:05:32.344Z,11.75
2023-07-04T18:07:38.419Z,14.35
2023-07-04T18:09:48.736Z,11.70
2023-07-04T18:11:56.697Z,10.88
2023-07-04T18:14:02.873Z,19.10
2023-07-04T18:16:08.888Z,12.15
2023-07-04T18:18:19.990Z,13.52
2023-07-04T18:20:25.406Z,12.07
2023-07-04T18:22:36.412Z,43.13
2023-07-04T18:24:51.672Z,11.70
2023-07-04T18:27:02.321Z,11.45
2023-07-04T18:29:11.387Z,13.20
2023-07-04T18:31:20.378Z,13.15
2023-07-04T18:33:30.751Z,10.85
2023-07-04T18:35:36.698Z,11.18
2023-07-04T18:37:52.558Z,11.75
2023-07-04T18:40:00.252Z,13.13
2023-07-04T18:42:15.654Z,12.95
2023-07-04T18:44:21.079Z,12.85
2023-07-04T18:46:29.153Z,13.43
2023-07-04T18:48:37.732Z,10.13
2023-07-04T18:50:43.090Z,22.60
2023-07-04T18:52:48.840Z,11.70
2023-07-04T18:55:00.971Z,13.05
2023-07-04T18:57:09.381Z,17.25
2023-07-04T18:59:16.401Z,12.32
2023-07-04T19:01:24.218Z,11.30
2023-07-04T19:03:37.229Z,11.27
2023-07-04T19:05:42.984Z,14.82
2023-07-04T19:07:48.451Z,12.98
2023-07-04T19:09:55.493Z,13.13
2023-07-04T19:12:01.560Z,10.77
2023-07-04T19:14:12.805Z,15.38
2023-07-04T19:16:31.521Z,13.23
2023-07-04T19:18:42.432Z,14.40
2023-07-04T19:20:55.379Z,14.52
2023-07-04T19:23:07.253Z,13.43
2023-07-04T19:25:13.359Z,18.10
2023-07-04T19:27:22.664Z,14.23
2023-07-04T19:29:43.245Z,12.43
2023-07-04T19:32:05.299Z,12.63
2023-07-04T19:34:11.030Z,14.43
2023-07-04T19:36:18.331Z,15.27
2023-07-04T19:38:25.340Z,13.13
2023-07-04T19:40:30.700Z,11.73
2023-07-04T19:42:36.160Z,12.15
2023-07-04T19:44:57.310Z,13.73
2023-07-04T19:47:03.149Z,14.35
2023-07-04T19:49:13.703Z,15.27
2023-07-04T19:51:21.639Z,14.95
2023-07-04T19:53:35.687Z,17.75
2023-07-04T19:55:42.719Z,15.35
2023-07-04T19:57:50.778Z,16.00
2023-07-04T20:00:01.237Z,19.60
2023-07-04T20:02:09.307Z,17.80
2023-07-04T20:04:15.029Z,15.05
2023-07-04T20:06:24.322Z,16.80
2023-07-04T20:08:32.131Z,22.27
2023-07-04T20:10:40.566Z,16.35
2023-07-04T20:12:49.196Z,17.13
2023-07-04T20:15:05.329Z,18.58
2023-07-04T20:17:12.843Z,23.60
2023-07-04T20:19:21.534Z,20.10
2023-07-04T20:21:29.814Z,23.08
2023-07-04T20:23:43.794Z,20.80
2023-07-04T20:25:54.150Z,21.95
2023-07-04T20:28:01.188Z,21.95
2023-07-04T20:30:18.923Z,17.05
2023-07-04T20:32:24.482Z,15.80
2023-07-04T20:34:34.901Z,15.55
2023-07-04T20:36:42.874Z,16.08
2023-07-04T20:38:49.554Z,15.43
2023-07-04T20:40:57.552Z,17.77
2023-07-04T20:43:08.391Z,21.13
2023-07-04T20:45:17.719Z,19.58
2023-07-04T20:47:24.237Z,17.55
2023-07-04T20:49:30.044Z,15.30
2023-07-04T20:51:49.266Z,18.50
2023-07-04T20:54:00.782Z,15.30
2023-07-04T20:56:08.479Z,16.30
2023-07-04T20:58:15.262Z,16.25
2023-07-04T21:00:24.031Z,16.27
2023-07-04T21:02:29.476Z,13.57
2023-07-04T21:04:44.909Z,13.65
2023-07-04T21:06:50.317Z,14.15
2023-07-04T21:08:57.146Z,13.45
2023-07-04T21:11:07.291Z,13.60
2023-07-04T21:13:19.027Z,14.40
2023-07-04T21:15:32.943Z,17.95
2023-07-04T21:17:40.873Z,12.52
2023-07-04T21:19:48.981Z,14.00
2023-07-04T21:21:54.985Z,12.93
2023-07-04T21:24:00.427Z,15.88
2023-07-04T21:26:15.087Z,12.15
2023-07-04T21:28:22.939Z,12.65
2023-07-04T21:30:33.948Z,14.88
2023-07-04T21:32:39.456Z,15.07
2023-07-04T21:34:50.982Z,13.85
2023-07-04T21:36:57.539Z,12.18
2023-07-04T21:39:04.937Z,15.25
2023-07-04T21:41:13.165Z,17.92
2023-07-04T21:43:23.472Z,14.57
2023-07-04T21:45:31.928Z,14.25
2023-07-04T21:47:39.750Z,12.05
2023-07-04T21:49:45.549Z,17.05
2023-07-04T21:51:54.192Z,12.90
2023-07-04T21:54:01.330Z,15.45
2023-07-04T21:56:05.141Z,12.95
2023-07-04T21:58:14.866Z,12.90
2023-07-04T22:00:22.371Z,13.93
2023-07-04T22:02:34.658Z,14.48
2023-07-04T22:04:40.133Z,16.98
2023-07-04T22:06:46.065Z,12.63
2023-07-04T22:08:51.502Z,12.88
2023-07-04T22:11:00.005Z,13.85
2023-07-04T22:13:05.704Z,14.93
2023-07-04T22:15:11.934Z,13.55
2023-07-04T22:17:35.803Z,17.52
2023-07-04T22:19:41.262Z,13.68
2023-07-04T22:21:46.878Z,15.77
2023-07-04T22:23:52.706Z,12.90
2023-07-04T22:25:58.286Z,12.90
2023-07-04T22:28:05.908Z,14.57
2023-07-04T22:32:21.839Z,16.08
2023-07-04T22:34:36.203Z,13.65
2023-07-04T22:36:46.698Z,15.05
2023-07-04T22:38:54.398Z,13.98
2023-07-04T22:41:02.309Z,15.55
2023-07-04T22:43:09.095Z,13.75
2023-07-04T22:45:16.398Z,14.40
2023-07-04T22:47:22.053Z,14.13
2023-07-04T22:49:33.974Z,13.95
2023-07-04T22:51:41.455Z,13.98
2023-07-04T22:53:52.300Z,13.70
2023-07-04T22:56:00.271Z,15.18
2023-07-04T22:58:07.960Z,16.42
2023-07-04T23:02:25.378Z,18.48
2023-07-04T23:04:47.872Z,17.23
2023-07-04T23:06:53.441Z,13.13
2023-07-04T23:08:58.791Z,17.58
2023-07-04T23:11:04.657Z,18.02
2023-07-04T23:13:16.585Z,16.27
2023-07-04T23:15:22.207Z,14.15
2023-07-04T23:17:31.003Z,13.75
2023-07-04T23:19:39.011Z,13.82
2023-07-04T23:21:45.372Z,16.80
2023-07-04T23:23:52.684Z,15.13
2023-07-04T23:25:58.457Z,16.20
2023-07-04T23:28:16.424Z,15.80
2023-07-04T23:30:24.536Z,15.18
2023-07-04T23:32:30.770Z,16.05
2023-07-04T23:34:53.505Z,14.27
2023-07-04T23:37:00.418Z,12.48
2023-07-04T23:39:07.366Z,13.40
2023-07-04T23:41:16.240Z,15.93
2023-07-04T23:43:29.611Z,13.48
2023-07-04T23:45:35.193Z,11.02
2023-07-04T23:47:40.822Z,11.35
2023-07-04T23:49:51.688Z,10.98
2023-07-04T23:51:58.681Z,10.90
2023-07-04T23:54:06.174Z,13.32
2023-07-04T23:56:12.120Z,11.45
2023-07-04T23:58:25.507Z,11.15
